Rechercher aéroport 
image banner adimage banner adimage banner ad
image banner ad

1CL1 - Little Buttes Antique Airfield

Situé à Lancaster, United States

ICAO - 1CL1, IATA -

Données fournies par Airmate  

Information générale

Coordonnées: N34°47'39" W118°16'39"
Élévation : 2433 feet MSL.
Variation magnétique : 14° East
Voir autres Aéroports à California

Données opérationnelles

Special qualification required
Heure actuelle UTC:
Heure actuelle locale:
Météo à : KWJF - General Wm J Fox Airfield ( 8 km )
METAR: KWJF 251156Z AUTO 24015KT 10SM CLR 25/04 A2995 RMK AO2 SLP119 T02500044 10278 20244 58004
TAF: KWJF 251158Z 2512/2612 23007KT P6SM BKN120 FM252100 23015G23KT P6SM BKN070 OVC120 FM260300 23010KT P6SM OVC120 FM260900 21007KT P6SM VCSH OVC120
Voir NOTAMs / SUP AIP / TFR affectant cet aéroport [VIEW]
Fréquences de communication: [VIEW]

Pistes:

Identifiant RWYQFULongueur (ft)Largeur (ft)SurfaceLDA (ft)
06290080GRASS
24290080GRASS

Coordonnées de l'aéroport

Adresse: Lancaster United States

Vue satellite de 1CL1